Time;durP1;ratioP1;P1;durP2;ratioP2;P2;SDS_P1;SDS_P2;PMS_P1;PMS_P2;Temp;Humidity;BMP_temperature;BMP_pressure;BME280_temperature;BME280_humidity;BME280_pressure;Samples;Min_cycle;Max_cycle;Signal;HPM_P1;HPM_P2
2022/10/20 00:00:00;;;;;;;11.50;3.05;;;7.00;99.90;;;;;;5038446;28;20045;-82
2022/10/20 00:02:26;;;;;;;8.77;3.22;;;7.00;99.90;;;;;;5037936;28;20385;-82
2022/10/20 00:04:51;;;;;;;8.95;3.75;;;7.00;99.90;;;;;;5040674;28;20045;-82
2022/10/20 00:07:17;;;;;;;5.07;3.63;;;6.90;99.90;;;;;;5036025;28;20069;-83
2022/10/20 00:09:42;;;;;;;5.10;2.65;;;6.90;99.90;;;;;;5032148;28;20053;-82
2022/10/20 00:12:08;;;;;;;5.38;3.28;;;6.90;99.90;;;;;;5028135;28;20060;-84
2022/10/20 00:14:34;;;;;;;10.82;3.15;;;6.90;99.90;;;;;;5034488;28;20512;-82
2022/10/20 00:17:00;;;;;;;4.60;3.00;;;6.90;99.90;;;;;;5049568;28;20219;-83
2022/10/20 00:19:27;;;;;;;5.85;3.47;;;6.90;99.90;;;;;;5054523;28;20038;-82
2022/10/20 00:21:52;;;;;;;10.80;3.70;;;6.90;99.90;;;;;;5052021;28;20041;-82
2022/10/20 00:24:20;;;;;;;12.15;3.72;;;6.90;99.90;;;;;;5046374;28;20041;-82
2022/10/20 00:26:46;;;;;;;12.80;2.92;;;6.90;99.90;;;;;;5044019;28;20048;-82
2022/10/20 00:29:11;;;;;;;6.55;2.97;;;6.90;99.90;;;;;;5029931;28;20049;-83
2022/10/20 00:31:37;;;;;;;13.77;3.50;;;6.90;99.90;;;;;;5044579;28;20084;-82
2022/10/20 00:34:03;;;;;;;6.75;3.05;;;6.80;99.90;;;;;;5034162;28;20113;-82
2022/10/20 00:36:29;;;;;;;5.80;2.65;;;6.80;99.90;;;;;;5032750;28;20068;-82
2022/10/20 00:39:02;;;;;;;6.47;3.40;;;6.80;99.90;;;;;;5028177;28;20044;-82
2022/10/20 00:41:29;;;;;;;5.05;2.75;;;6.80;99.90;;;;;;5047470;28;20049;-82
2022/10/20 00:43:57;;;;;;;7.65;3.28;;;6.80;99.90;;;;;;5039670;28;20109;-82
2022/10/20 00:46:30;;;;;;;6.38;3.40;;;6.80;99.90;;;;;;5040122;28;20072;-82
2022/10/20 00:49:05;;;;;;;9.27;3.50;;;6.80;99.90;;;;;;5041455;28;20053;-82
2022/10/20 00:51:33;;;;;;;12.57;3.13;;;6.80;99.90;;;;;;5025923;28;20048;-82
2022/10/20 00:54:09;;;;;;;6.28;2.92;;;6.70;99.90;;;;;;5054633;28;20045;-82
2022/10/20 00:56:38;;;;;;;6.78;3.63;;;6.70;99.90;;;;;;5047039;28;20088;-82
2022/10/20 00:59:04;;;;;;;5.88;2.72;;;6.70;99.90;;;;;;5044619;28;20041;-82
2022/10/20 01:01:30;;;;;;;9.02;3.30;;;6.60;99.90;;;;;;5012661;28;20037;-82
2022/10/20 01:03:57;;;;;;;12.38;3.03;;;6.60;99.90;;;;;;5032640;28;20052;-82
2022/10/20 01:06:22;;;;;;;11.20;3.83;;;6.60;99.90;;;;;;5035806;28;20706;-82
2022/10/20 01:08:53;;;;;;;8.23;3.05;;;6.60;99.90;;;;;;5027302;28;20052;-82
2022/10/20 01:11:31;;;;;;;9.43;3.38;;;6.60;99.90;;;;;;5038177;28;20041;-82
2022/10/20 01:14:02;;;;;;;10.98;3.50;;;6.60;99.90;;;;;;5044586;28;20058;-82
2022/10/20 01:16:35;;;;;;;5.10;2.95;;;6.60;99.90;;;;;;5027106;28;20069;-82
2022/10/20 01:19:19;;;;;;;8.55;3.35;;;6.60;99.90;;;;;;5051056;28;20106;-82
2022/10/20 01:22:12;;;;;;;10.23;4.07;;;6.60;99.90;;;;;;5038700;28;20041;-82
2022/10/20 01:25:00;;;;;;;8.05;3.00;;;6.60;99.90;;;;;;5044069;28;20045;-83
2022/10/20 01:27:50;;;;;;;6.65;3.10;;;6.60;99.90;;;;;;5050155;28;20171;-83
2022/10/20 01:30:18;;;;;;;7.47;3.40;;;6.60;99.90;;;;;;5046545;28;20591;-82
2022/10/20 01:33:09;;;;;;;4.25;2.28;;;6.60;99.90;;;;;;5044148;28;20030;-82
2022/10/20 01:35:58;;;;;;;8.07;2.78;;;6.70;99.90;;;;;;5041943;28;20360;-83
2022/10/20 01:38:39;;;;;;;9.15;3.40;;;6.70;99.90;;;;;;5032550;28;20053;-83
2022/10/20 01:41:26;;;;;;;8.23;3.22;;;6.60;99.90;;;;;;5033662;28;20111;-82
2022/10/20 01:43:53;;;;;;;5.60;2.22;;;6.70;99.90;;;;;;5043626;28;20038;-82
2022/10/20 01:46:23;;;;;;;6.30;3.38;;;6.60;99.90;;;;;;5032008;28;20048;-82
2022/10/20 01:48:49;;;;;;;6.22;3.05;;;6.60;99.90;;;;;;5043485;28;20057;-82
2022/10/20 01:51:14;;;;;;;7.22;2.55;;;6.60;99.90;;;;;;5025229;28;20465;-82
2022/10/20 01:53:40;;;;;;;9.32;3.38;;;6.70;99.90;;;;;;5037734;28;20045;-82
2022/10/20 01:56:15;;;;;;;9.15;3.58;;;6.70;99.90;;;;;;5044559;28;20844;-82
2022/10/20 01:59:31;;;;;;;6.72;3.50;;;6.60;99.90;;;;;;5042284;28;20048;-82
2022/10/20 02:02:22;;;;;;;9.02;3.33;;;6.60;99.90;;;;;;5043759;28;20052;-82
2022/10/20 02:05:20;;;;;;;6.00;2.88;;;6.60;99.90;;;;;;5039475;28;20044;-82
2022/10/20 02:07:46;;;;;;;4.82;2.67;;;6.60;99.90;;;;;;5036083;28;20057;-82
2022/10/20 02:10:19;;;;;;;6.45;3.20;;;6.60;99.90;;;;;;5044118;28;20041;-82
2022/10/20 02:12:50;;;;;;;9.40;3.35;;;6.60;99.90;;;;;;5036783;28;20708;-84
2022/10/20 02:15:22;;;;;;;10.05;3.13;;;6.60;99.90;;;;;;5041292;28;20049;-82
2022/10/20 02:17:53;;;;;;;5.82;3.55;;;6.60;99.90;;;;;;5027590;28;20064;-82
2022/10/20 02:20:19;;;;;;;7.72;2.63;;;6.50;99.90;;;;;;5030279;28;20045;-82
2022/10/20 02:22:47;;;;;;;10.95;3.50;;;6.50;99.90;;;;;;5030514;28;20101;-83
2022/10/20 02:25:13;;;;;;;8.43;3.95;;;6.50;99.90;;;;;;5029541;28;20056;-82
2022/10/20 02:27:43;;;;;;;4.63;2.95;;;6.50;99.90;;;;;;5040036;28;20046;-82
2022/10/20 02:30:12;;;;;;;8.73;3.20;;;6.40;99.90;;;;;;5036056;28;20225;-82
2022/10/20 02:32:40;;;;;;;5.53;2.70;;;6.40;99.90;;;;;;5043016;28;20044;-82
2022/10/20 02:35:13;;;;;;;7.32;3.10;;;6.50;99.90;;;;;;5034114;28;20060;-82
2022/10/20 02:37:39;;;;;;;9.05;3.72;;;6.50;99.90;;;;;;5046998;28;20427;-82
2022/10/20 02:40:05;;;;;;;4.63;2.38;;;6.50;99.90;;;;;;5036678;28;20336;-82
2022/10/20 02:42:31;;;;;;;9.00;3.40;;;6.50;99.90;;;;;;5042003;28;20056;-82
2022/10/20 02:44:56;;;;;;;6.70;3.25;;;6.50;99.90;;;;;;5031269;28;20120;-82
2022/10/20 02:47:22;;;;;;;6.55;2.92;;;6.50;99.90;;;;;;5025601;28;20081;-82
2022/10/20 02:49:48;;;;;;;8.93;3.35;;;6.50;99.90;;;;;;5029101;28;20033;-82
2022/10/20 02:52:14;;;;;;;6.15;3.05;;;6.50;99.90;;;;;;5031614;28;20037;-82
2022/10/20 02:54:40;;;;;;;4.95;3.47;;;6.50;99.90;;;;;;5041388;28;20057;-82
2022/10/20 02:57:05;;;;;;;10.85;3.80;;;6.50;99.90;;;;;;5034099;28;20152;-83
2022/10/20 02:59:32;;;;;;;5.10;3.53;;;6.50;99.90;;;;;;5040046;28;20181;-82
2022/10/20 03:01:57;;;;;;;6.68;3.42;;;6.50;99.90;;;;;;5039501;28;20136;-82
2022/10/20 03:04:23;;;;;;;6.35;3.10;;;6.40;99.90;;;;;;5036383;28;20084;-82
2022/10/20 03:06:49;;;;;;;4.60;2.65;;;6.40;99.90;;;;;;5027451;28;20045;-83
2022/10/20 03:09:15;;;;;;;6.63;3.58;;;6.40;99.90;;;;;;5036839;28;20049;-83
2022/10/20 03:11:41;;;;;;;5.57;3.45;;;6.40;99.90;;;;;;5040580;28;20042;-82
2022/10/20 03:14:06;;;;;;;8.18;3.55;;;6.40;99.90;;;;;;5031521;28;20106;-82
2022/10/20 03:16:32;;;;;;;8.48;4.05;;;6.40;99.90;;;;;;5043877;28;20057;-82
2022/10/20 03:18:58;;;;;;;7.28;3.40;;;6.40;99.90;;;;;;5041511;28;20041;-82
2022/10/20 03:21:23;;;;;;;9.32;4.03;;;6.40;99.90;;;;;;5029752;28;20045;-82
2022/10/20 03:23:49;;;;;;;8.95;3.50;;;6.40;99.90;;;;;;5032192;28;20515;-82
2022/10/20 03:26:15;;;;;;;10.43;3.75;;;6.40;99.90;;;;;;5040597;28;20049;-82
2022/10/20 03:28:40;;;;;;;8.05;3.33;;;6.40;99.90;;;;;;5052003;28;20729;-82
2022/10/20 03:31:07;;;;;;;10.77;3.83;;;6.40;99.90;;;;;;5046215;28;20072;-82
2022/10/20 03:33:33;;;;;;;9.25;3.97;;;6.30;99.90;;;;;;5045406;28;20049;-82
2022/10/20 03:35:59;;;;;;;6.82;3.28;;;6.30;99.90;;;;;;5042802;28;20116;-82
2022/10/20 03:38:25;;;;;;;7.30;3.75;;;6.40;99.90;;;;;;5026273;28;20613;-82
2022/10/20 03:40:51;;;;;;;6.43;3.78;;;6.30;99.90;;;;;;5045525;28;20037;-82
2022/10/20 03:43:16;;;;;;;6.90;3.83;;;6.40;99.90;;;;;;5019441;28;20109;-82
2022/10/20 03:45:42;;;;;;;7.35;4.13;;;6.30;99.90;;;;;;5024985;28;20098;-82
2022/10/20 03:48:09;;;;;;;7.47;4.07;;;6.30;99.90;;;;;;5059459;28;20049;-82
2022/10/20 03:50:37;;;;;;;8.13;3.88;;;6.30;99.90;;;;;;5024329;28;20057;-82
2022/10/20 03:53:03;;;;;;;11.65;3.85;;;6.30;99.90;;;;;;5045491;28;20057;-82
2022/10/20 03:55:29;;;;;;;6.50;3.80;;;6.30;99.90;;;;;;5055888;28;20045;-82
2022/10/20 03:57:55;;;;;;;8.52;4.07;;;6.40;99.90;;;;;;5057455;28;20053;-82
2022/10/20 04:00:21;;;;;;;9.95;4.10;;;6.30;99.90;;;;;;5059540;28;20045;-82
2022/10/20 04:02:46;;;;;;;9.65;3.83;;;6.30;99.90;;;;;;5041785;28;20052;-82
2022/10/20 04:05:15;;;;;;;8.27;4.20;;;6.30;99.90;;;;;;5047416;28;20049;-82
2022/10/20 04:07:41;;;;;;;7.32;4.28;;;6.30;99.90;;;;;;5036082;28;20044;-83
2022/10/20 04:10:08;;;;;;;9.32;4.55;;;6.30;99.90;;;;;;5040677;28;20089;-83
2022/10/20 04:12:34;;;;;;;7.43;4.43;;;6.40;99.90;;;;;;5052262;28;20136;-84
2022/10/20 04:14:59;;;;;;;10.95;4.38;;;6.40;99.90;;;;;;5062646;28;20057;-82
2022/10/20 04:17:25;;;;;;;9.13;5.22;;;6.40;99.90;;;;;;5041259;28;20116;-82
2022/10/20 04:19:51;;;;;;;11.48;5.50;;;6.40;99.90;;;;;;5024626;28;20129;-82
2022/10/20 04:22:16;;;;;;;7.80;4.25;;;6.40;99.90;;;;;;5043751;28;20488;-82
2022/10/20 04:24:42;;;;;;;9.00;4.88;;;6.40;99.90;;;;;;5028708;28;20038;-82
2022/10/20 04:27:08;;;;;;;8.40;4.82;;;6.40;99.90;;;;;;5026390;28;20516;-82
2022/10/20 04:29:34;;;;;;;8.00;4.78;;;6.40;99.90;;;;;;5023441;28;20079;-82
2022/10/20 04:31:59;;;;;;;8.35;4.60;;;6.40;99.90;;;;;;5041074;28;20065;-82
2022/10/20 04:34:25;;;;;;;10.25;5.18;;;6.40;99.90;;;;;;5039474;28;20133;-82
2022/10/20 04:36:51;;;;;;;11.10;5.53;;;6.50;99.90;;;;;;5042995;28;20044;-82
2022/10/20 04:39:17;;;;;;;12.88;5.45;;;6.50;99.90;;;;;;5022097;28;20045;-83
2022/10/20 04:41:42;;;;;;;9.63;4.95;;;6.40;99.90;;;;;;5039986;28;20041;-82
2022/10/20 04:44:09;;;;;;;19.90;6.75;;;6.50;99.90;;;;;;5024555;28;20048;-83
2022/10/20 04:46:35;;;;;;;9.30;5.07;;;6.50;99.90;;;;;;5050833;28;20047;-83
2022/10/20 04:49:00;;;;;;;14.02;5.05;;;6.50;99.90;;;;;;5043723;28;20052;-83
2022/10/20 04:51:26;;;;;;;9.30;5.40;;;6.40;99.90;;;;;;5038004;28;20057;-83
2022/10/20 04:53:53;;;;;;;11.80;6.47;;;6.50;99.90;;;;;;5033541;28;20041;-83
2022/10/20 04:56:20;;;;;;;11.88;5.50;;;6.50;99.90;;;;;;5003286;28;20133;-83
2022/10/20 04:58:54;;;;;;;9.13;5.57;;;6.40;99.90;;;;;;5048538;28;20135;-82
2022/10/20 05:01:22;;;;;;;11.20;5.78;;;6.40;99.90;;;;;;5052168;28;20079;-83
2022/10/20 05:03:47;;;;;;;12.82;5.60;;;6.40;99.90;;;;;;5042181;28;20760;-82
2022/10/20 05:06:14;;;;;;;12.15;6.28;;;6.40;99.90;;;;;;5044730;28;20049;-83
2022/10/20 05:08:42;;;;;;;13.80;6.25;;;6.40;99.90;;;;;;5035966;28;20045;-82
2022/10/20 05:11:09;;;;;;;13.93;6.70;;;6.40;99.90;;;;;;5039871;28;20041;-83
2022/10/20 05:13:35;;;;;;;13.80;6.53;;;6.40;99.90;;;;;;5053008;28;20076;-83
2022/10/20 05:16:01;;;;;;;12.93;5.65;;;6.40;99.90;;;;;;5037974;28;20029;-82
2022/10/20 05:18:28;;;;;;;17.38;8.55;;;6.40;99.90;;;;;;5048660;28;20045;-82
2022/10/20 05:20:53;;;;;;;17.40;8.77;;;6.50;99.90;;;;;;5040308;28;20056;-83
2022/10/20 05:23:19;;;;;;;16.80;7.68;;;6.40;99.90;;;;;;5044928;28;20485;-82
2022/10/20 05:25:45;;;;;;;10.18;5.85;;;6.40;99.90;;;;;;5035102;28;20045;-82
2022/10/20 05:28:11;;;;;;;13.27;6.93;;;6.40;99.90;;;;;;5048567;28;20043;-83
2022/10/20 05:30:37;;;;;;;17.42;6.55;;;6.40;99.90;;;;;;5029561;28;20121;-83
2022/10/20 05:33:03;;;;;;;14.18;6.78;;;6.40;99.90;;;;;;5036745;28;20159;-83
2022/10/20 05:35:29;;;;;;;11.02;6.22;;;6.40;99.90;;;;;;5035018;28;20156;-83
2022/10/20 05:37:55;;;;;;;10.65;6.22;;;6.40;99.90;;;;;;5042066;28;20223;-83
2022/10/20 05:40:22;;;;;;;12.25;6.53;;;6.40;99.90;;;;;;5052405;28;20049;-83
2022/10/20 05:42:48;;;;;;;13.70;7.88;;;6.30;99.90;;;;;;5026466;28;20041;-82
2022/10/20 05:45:14;;;;;;;13.20;6.90;;;6.30;99.90;;;;;;5031018;28;20080;-83
2022/10/20 05:47:41;;;;;;;15.13;7.22;;;6.30;99.90;;;;;;5030674;28;20040;-83
2022/10/20 05:50:08;;;;;;;14.63;6.95;;;6.30;99.90;;;;;;5031809;28;20443;-82
2022/10/20 05:52:34;;;;;;;15.35;7.65;;;6.30;99.90;;;;;;5032782;28;20040;-82
2022/10/20 05:55:00;;;;;;;12.93;7.30;;;6.40;99.90;;;;;;5033632;28;21133;-82
2022/10/20 05:57:26;;;;;;;12.50;7.35;;;6.30;99.90;;;;;;5042347;28;20045;-82
2022/10/20 05:59:52;;;;;;;13.85;6.82;;;6.30;99.90;;;;;;5050516;28;20071;-83
2022/10/20 06:02:17;;;;;;;19.75;7.18;;;6.30;99.90;;;;;;5047833;28;20100;-82
2022/10/20 06:04:43;;;;;;;11.13;6.38;;;6.40;99.90;;;;;;5011872;28;20057;-83
2022/10/20 06:07:09;;;;;;;14.20;7.13;;;6.40;99.90;;;;;;5031158;28;20105;-82
2022/10/20 06:09:36;;;;;;;15.90;6.43;;;6.30;99.90;;;;;;5040490;28;22090;-83
2022/10/20 06:12:03;;;;;;;12.95;7.35;;;6.30;99.90;;;;;;5048543;28;20477;-82
2022/10/20 06:14:29;;;;;;;14.27;7.72;;;6.30;99.90;;;;;;5048092;28;20038;-82
2022/10/20 06:16:55;;;;;;;12.93;7.07;;;6.30;99.90;;;;;;5032359;28;20037;-82
2022/10/20 06:19:22;;;;;;;10.75;6.20;;;6.30;99.90;;;;;;5030007;28;20067;-83
2022/10/20 06:21:49;;;;;;;19.67;7.65;;;6.30;99.90;;;;;;5039326;28;20079;-83
2022/10/20 06:24:15;;;;;;;14.40;7.07;;;6.30;99.90;;;;;;5041560;28;20065;-84
2022/10/20 06:26:42;;;;;;;19.92;8.50;;;6.30;99.90;;;;;;5039611;28;20128;-83
2022/10/20 06:29:16;;;;;;;20.52;7.00;;;6.40;99.90;;;;;;5023284;28;20111;-83
2022/10/20 06:31:47;;;;;;;12.05;6.68;;;6.40;99.90;;;;;;5042146;28;20109;-82
2022/10/20 06:34:19;;;;;;;11.93;6.07;;;6.40;99.90;;;;;;5040577;28;20130;-82
2022/10/20 06:36:46;;;;;;;12.18;7.15;;;6.50;99.90;;;;;;5036149;28;20055;-84
2022/10/20 06:39:18;;;;;;;13.07;7.43;;;6.50;99.90;;;;;;5038397;28;21743;-82
2022/10/20 06:41:49;;;;;;;12.38;7.20;;;6.50;99.90;;;;;;5056666;28;20037;-82
2022/10/20 06:44:16;;;;;;;11.77;6.10;;;6.50;99.90;;;;;;5029073;28;20037;-82
2022/10/20 06:46:41;;;;;;;12.82;6.85;;;6.60;99.90;;;;;;5043577;28;20318;-83
2022/10/20 06:49:10;;;;;;;14.70;7.57;;;6.60;99.90;;;;;;5037338;28;20049;-83
2022/10/20 06:51:36;;;;;;;16.17;7.03;;;6.70;99.90;;;;;;5047623;28;21014;-84
2022/10/20 06:54:02;;;;;;;15.88;7.80;;;6.70;99.90;;;;;;5039164;28;20118;-83
2022/10/20 06:56:31;;;;;;;10.63;6.90;;;6.70;99.90;;;;;;5037138;28;20050;-84
2022/10/20 06:58:58;;;;;;;15.73;6.93;;;6.80;99.90;;;;;;5037402;28;20072;-83
2022/10/20 07:01:25;;;;;;;11.13;6.82;;;6.80;99.90;;;;;;5052649;28;20080;-82
2022/10/20 07:03:54;;;;;;;16.67;7.07;;;6.80;99.90;;;;;;5045808;28;20045;-84
2022/10/20 07:06:23;;;;;;;13.77;7.40;;;6.90;99.90;;;;;;5045097;28;20072;-84
2022/10/20 07:08:52;;;;;;;13.27;6.70;;;6.90;99.90;;;;;;5048018;28;20072;-84
2022/10/20 07:11:20;;;;;;;13.73;6.28;;;6.90;99.90;;;;;;5058916;28;20045;-83
2022/10/20 07:13:48;;;;;;;13.75;7.28;;;6.90;99.90;;;;;;5042083;28;20128;-83
2022/10/20 07:16:16;;;;;;;17.50;6.47;;;7.00;99.90;;;;;;5027625;28;20132;-83
2022/10/20 07:18:42;;;;;;;11.32;6.93;;;7.00;99.90;;;;;;5056838;28;20084;-84
2022/10/20 07:21:14;;;;;;;12.65;7.18;;;7.00;99.90;;;;;;5047176;28;20041;-84
2022/10/20 07:23:40;;;;;;;13.25;6.32;;;7.10;99.90;;;;;;5032621;28;20111;-84
2022/10/20 07:26:09;;;;;;;14.43;7.68;;;7.10;99.90;;;;;;5055514;28;20045;-84
2022/10/20 07:28:36;;;;;;;11.38;7.03;;;7.20;99.90;;;;;;5025297;28;20411;-85
2022/10/20 07:31:06;;;;;;;13.82;6.35;;;7.20;99.90;;;;;;5044052;28;20080;-84
2022/10/20 07:33:33;;;;;;;21.92;7.95;;;7.20;99.90;;;;;;5025004;28;20099;-84
2022/10/20 07:35:59;;;;;;;13.13;6.82;;;7.30;99.90;;;;;;5043250;28;20033;-84
2022/10/20 07:38:24;;;;;;;16.10;7.13;;;7.30;99.90;;;;;;5057602;28;20065;-84
2022/10/20 07:40:50;;;;;;;16.27;7.03;;;7.30;99.90;;;;;;5042792;28;20053;-85
2022/10/20 07:43:16;;;;;;;18.02;7.47;;;7.40;99.90;;;;;;5036684;28;20080;-84
2022/10/20 07:45:41;;;;;;;13.73;6.40;;;7.40;99.90;;;;;;5025831;28;20032;-83
2022/10/20 07:48:08;;;;;;;11.60;6.53;;;7.60;99.90;;;;;;5054462;28;20090;-83
2022/10/20 07:50:35;;;;;;;13.57;6.15;;;7.60;99.90;;;;;;5046989;28;20087;-84
2022/10/20 07:53:01;;;;;;;19.70;7.55;;;7.60;99.90;;;;;;5051772;28;20046;-83
2022/10/20 07:55:27;;;;;;;11.40;6.50;;;7.70;99.90;;;;;;5052751;28;20032;-81
2022/10/20 07:57:53;;;;;;;12.98;6.60;;;7.70;99.90;;;;;;5031344;28;20049;-81
2022/10/20 08:00:19;;;;;;;8.90;5.80;;;7.80;99.90;;;;;;5036720;28;20041;-86
2022/10/20 08:02:45;;;;;;;14.07;6.10;;;7.80;99.90;;;;;;5027664;28;20296;-83
2022/10/20 08:05:12;;;;;;;10.10;5.93;;;7.90;99.90;;;;;;5051417;28;20091;-84
2022/10/20 08:07:38;;;;;;;11.90;6.90;;;8.00;99.90;;;;;;5025758;28;20048;-84
2022/10/20 08:10:05;;;;;;;14.13;6.43;;;8.00;99.90;;;;;;5055239;28;20045;-84
2022/10/20 08:12:31;;;;;;;13.32;6.40;;;8.10;99.90;;;;;;5039402;28;20045;-85
2022/10/20 08:14:57;;;;;;;11.27;6.18;;;8.20;99.90;;;;;;5051543;28;20059;-84
2022/10/20 08:17:23;;;;;;;10.32;6.55;;;8.20;99.90;;;;;;5023618;28;20037;-84
2022/10/20 08:19:49;;;;;;;11.55;5.97;;;8.30;99.90;;;;;;5055738;28;20045;-85
2022/10/20 08:22:15;;;;;;;10.27;6.13;;;8.40;99.90;;;;;;5056807;28;20055;-85
2022/10/20 08:24:40;;;;;;;11.82;6.60;;;8.50;99.90;;;;;;5022309;28;20105;-84
2022/10/20 08:27:06;;;;;;;11.30;7.18;;;8.60;99.90;;;;;;5051675;28;20060;-84
2022/10/20 08:29:32;;;;;;;16.83;6.60;;;8.60;99.90;;;;;;5053699;28;20053;-84
2022/10/20 08:31:58;;;;;;;10.75;6.38;;;8.70;99.90;;;;;;5022390;28;20067;-85
2022/10/20 08:34:24;;;;;;;17.20;6.80;;;8.80;99.90;;;;;;5033627;28;20041;-85
2022/10/20 08:36:49;;;;;;;15.10;6.50;;;8.80;99.90;;;;;;5029243;28;20052;-84
2022/10/20 08:39:15;;;;;;;9.75;6.30;;;8.90;99.90;;;;;;5003544;28;20140;-84
2022/10/20 08:41:47;;;;;;;10.90;6.70;;;9.00;99.90;;;;;;5038791;28;20049;-84
2022/10/20 08:44:24;;;;;;;17.35;6.28;;;9.10;99.90;;;;;;5058773;28;20537;-84
2022/10/20 08:46:51;;;;;;;8.18;4.95;;;9.20;99.90;;;;;;5040229;28;20091;-84
2022/10/20 08:49:23;;;;;;;13.45;6.22;;;9.20;99.90;;;;;;5033245;28;20052;-84
2022/10/20 08:51:49;;;;;;;15.52;5.75;;;9.30;99.90;;;;;;5050877;28;20074;-84
2022/10/20 08:54:16;;;;;;;8.20;5.38;;;9.40;99.90;;;;;;5059279;28;20123;-84
2022/10/20 08:56:43;;;;;;;10.02;5.70;;;9.40;99.90;;;;;;5051762;28;20042;-85
2022/10/20 08:59:21;;;;;;;10.18;6.45;;;9.50;99.90;;;;;;5040573;28;20766;-84
2022/10/20 09:01:46;;;;;;;12.15;5.93;;;9.60;99.90;;;;;;5052318;28;20037;-84
2022/10/20 09:04:18;;;;;;;13.13;5.97;;;9.70;99.90;;;;;;5021874;28;20034;-83
2022/10/20 09:06:49;;;;;;;12.55;6.60;;;9.80;99.90;;;;;;5045784;28;20079;-83
2022/10/20 09:09:17;;;;;;;12.50;6.57;;;9.80;99.90;;;;;;5056372;28;20504;-84
2022/10/20 09:11:44;;;;;;;15.50;5.40;;;9.90;99.90;;;;;;5039280;28;20033;-84
2022/10/20 09:14:15;;;;;;;13.00;5.68;;;9.90;99.90;;;;;;5032974;28;20057;-84
2022/10/20 09:16:42;;;;;;;17.93;7.40;;;9.90;99.90;;;;;;5042334;28;20049;-84
2022/10/20 09:19:19;;;;;;;11.45;5.45;;;10.00;99.90;;;;;;5060314;28;20302;-84
2022/10/20 09:21:52;;;;;;;11.50;5.22;;;10.00;99.90;;;;;;5052871;28;20041;-83
2022/10/20 09:24:21;;;;;;;11.77;5.47;;;10.10;99.90;;;;;;5052201;28;20065;-83
2022/10/20 09:26:49;;;;;;;10.18;5.22;;;10.20;99.90;;;;;;5057098;28;20045;-84
2022/10/20 09:29:32;;;;;;;19.58;7.68;;;10.30;99.90;;;;;;5041227;28;20041;-83
2022/10/20 09:31:58;;;;;;;16.00;6.60;;;10.40;99.90;;;;;;5054376;28;20080;-83
2022/10/20 09:34:32;;;;;;;12.15;5.32;;;10.60;99.90;;;;;;5038026;28;20036;-83
2022/10/20 09:37:07;;;;;;;12.05;4.95;;;10.80;99.90;;;;;;5036516;28;20076;-83
2022/10/20 09:39:51;;;;;;;9.45;4.90;;;11.00;99.90;;;;;;5045566;28;20044;-83
2022/10/20 09:42:30;;;;;;;11.50;4.80;;;11.30;99.90;;;;;;5043685;28;20076;-84
2022/10/20 09:45:00;;;;;;;21.23;6.28;;;11.60;99.90;;;;;;5058279;28;20135;-83
2022/10/20 09:47:27;;;;;;;9.35;4.95;;;11.90;99.90;;;;;;5049561;28;20080;-84
2022/10/20 09:50:06;;;;;;;9.18;4.75;;;12.20;99.90;;;;;;5052869;28;20041;-83
2022/10/20 09:52:43;;;;;;;17.55;5.68;;;12.60;99.90;;;;;;5054659;28;20082;-84
2022/10/20 09:55:28;;;;;;;7.43;4.57;;;12.70;99.90;;;;;;5052078;28;20049;-83
2022/10/20 09:57:56;;;;;;;7.85;4.65;;;12.70;99.90;;;;;;5041619;28;20111;-82
2022/10/20 10:00:32;;;;;;;8.35;4.43;;;12.70;99.90;;;;;;5052020;28;20053;-84
2022/10/20 10:03:20;;;;;;;7.03;5.05;;;12.60;99.90;;;;;;5026744;28;20509;-83
2022/10/20 10:05:55;;;;;;;9.02;4.18;;;12.50;99.90;;;;;;5039091;28;20053;-83
2022/10/20 10:08:25;;;;;;;11.45;4.35;;;12.50;99.90;;;;;;5037025;28;20033;-83
2022/10/20 10:11:12;;;;;;;5.97;4.35;;;12.50;99.90;;;;;;5045318;28;20092;-83
2022/10/20 10:13:44;;;;;;;8.82;4.50;;;12.50;99.90;;;;;;5046455;28;20049;-83
2022/10/20 10:16:14;;;;;;;11.27;4.22;;;12.50;99.90;;;;;;5038762;28;20065;-84
2022/10/20 10:18:40;;;;;;;7.10;4.20;;;12.40;99.90;;;;;;5043307;28;20097;-84
2022/10/20 10:21:12;;;;;;;7.55;4.05;;;12.50;99.90;;;;;;5034966;28;20555;-84
2022/10/20 10:24:02;;;;;;;8.30;4.05;;;12.50;99.90;;;;;;5053064;28;20053;-83
2022/10/20 10:26:51;;;;;;;7.32;4.35;;;12.50;99.90;;;;;;5037422;28;20052;-84
2022/10/20 10:29:22;;;;;;;8.88;4.45;;;12.50;99.90;;;;;;5042293;28;20052;-84
2022/10/20 10:31:57;;;;;;;6.47;3.92;;;12.60;99.90;;;;;;5040722;28;20049;-84
2022/10/20 10:34:51;;;;;;;9.55;4.93;;;12.60;99.90;;;;;;5049677;28;20161;-84
2022/10/20 10:37:18;;;;;;;8.52;4.43;;;12.60;99.90;;;;;;5053670;28;20132;-84
2022/10/20 10:39:44;;;;;;;5.82;4.05;;;12.50;99.90;;;;;;5053204;28;20056;-84
2022/10/20 10:42:56;;;;;;;6.10;4.03;;;12.50;99.90;;;;;;5041957;28;20049;-85
2022/10/20 10:45:37;;;;;;;11.75;4.47;;;12.50;99.90;;;;;;5042510;28;20049;-84
2022/10/20 10:48:33;;;;;;;12.05;5.07;;;12.50;99.90;;;;;;5055251;28;20068;-84
2022/10/20 10:51:07;;;;;;;11.85;5.20;;;12.60;99.90;;;;;;5054921;28;20084;-84
2022/10/20 10:53:39;;;;;;;7.75;4.32;;;12.70;99.90;;;;;;5056814;28;20053;-83
2022/10/20 10:56:31;;;;;;;9.00;5.22;;;12.80;99.90;;;;;;5055833;28;20111;-84
2022/10/20 10:59:00;;;;;;;;;;;12.90;99.90;;;;;;5027796;28;20065;-83
2022/10/20 11:01:38;;;;;;;8.18;4.72;;;13.00;99.90;;;;;;5024134;28;19933;-84
2022/10/20 11:04:28;;;;;;;8.57;5.05;;;12.90;99.90;;;;;;5037402;28;20049;-83
2022/10/20 11:07:07;;;;;;;9.05;5.07;;;12.90;99.90;;;;;;5021872;28;20569;-83
2022/10/20 11:09:50;;;;;;;9.50;4.90;;;12.90;99.90;;;;;;5024344;28;20067;-83
2022/10/20 11:12:34;;;;;;;10.35;5.00;;;12.80;99.90;;;;;;5031134;28;20053;-84
2022/10/20 11:15:18;;;;;;;15.48;4.97;;;12.80;99.90;;;;;;5060390;28;20449;-83
2022/10/20 11:18:02;;;;;;;9.80;5.72;;;12.80;99.90;;;;;;5054606;28;20479;-83
2022/10/20 11:20:50;;;;;;;9.13;5.05;;;12.80;99.90;;;;;;5057805;28;20042;-84
2022/10/20 11:23:45;;;;;;;11.75;5.63;;;12.80;99.90;;;;;;5045097;28;20102;-84
2022/10/20 11:26:23;;;;;;;11.18;5.85;;;12.80;99.90;;;;;;5025540;28;20075;-83
2022/10/20 11:28:52;;;;;;;9.15;5.35;;;12.80;99.90;;;;;;5029713;28;20040;-83
2022/10/20 11:31:18;;;;;;;12.65;5.53;;;12.80;99.90;;;;;;5057014;28;20053;-84
2022/10/20 11:33:50;;;;;;;21.48;5.82;;;12.80;99.90;;;;;;5041049;28;20059;-84
2022/10/20 11:36:18;;;;;;;11.05;5.55;;;12.80;99.90;;;;;;5042089;28;20072;-84
2022/10/20 11:38:53;;;;;;;11.77;5.47;;;12.80;99.90;;;;;;5032627;28;20134;-84
2022/10/20 11:41:30;;;;;;;8.18;4.68;;;12.80;99.90;;;;;;5052955;28;20045;-84
2022/10/20 11:44:05;;;;;;;6.60;4.75;;;12.80;99.90;;;;;;5021223;28;20037;-83
2022/10/20 11:46:44;;;;;;;7.85;4.72;;;12.80;99.90;;;;;;5030618;28;20056;-83
2022/10/20 11:49:12;;;;;;;8.95;5.57;;;12.80;99.90;;;;;;5047534;28;20041;-83
2022/10/20 11:51:44;;;;;;;11.32;5.53;;;12.80;99.90;;;;;;5026602;28;20049;-84
2022/10/20 11:54:22;;;;;;;8.70;4.90;;;12.70;99.90;;;;;;5041790;28;20075;-83
2022/10/20 11:56:50;;;;;;;12.00;5.72;;;12.70;99.90;;;;;;5039437;28;20053;-84
2022/10/20 11:59:41;;;;;;;11.63;5.68;;;12.70;99.90;;;;;;5037778;28;20769;-84
2022/10/20 12:02:12;;;;;;;10.55;5.90;;;12.60;99.90;;;;;;5043540;28;20045;-83
2022/10/20 12:04:50;;;;;;;9.52;6.47;;;12.60;99.90;;;;;;5056651;28;20112;-84
2022/10/20 12:07:28;;;;;;;15.93;7.70;;;12.50;99.90;;;;;;5026564;28;20064;-83
2022/10/20 12:10:24;;;;;;;9.27;5.65;;;12.50;99.90;;;;;;5032222;28;20045;-83
2022/10/20 12:13:06;;;;;;;10.85;5.65;;;12.40;99.90;;;;;;5036450;28;20049;-84
2022/10/20 12:15:31;;;;;;;14.38;6.95;;;12.40;99.90;;;;;;5042362;28;20077;-84
2022/10/20 12:18:14;;;;;;;12.43;6.43;;;12.40;99.90;;;;;;5040243;28;20045;-83
2022/10/20 12:20:46;;;;;;;;;;;12.40;99.90;;;;;;5042471;28;20057;-84
2022/10/20 12:23:44;;;;;;;17.70;6.47;;;12.30;99.90;;;;;;5041703;28;20284;-85
2022/10/20 12:26:28;;;;;;;14.75;5.47;;;12.30;99.90;;;;;;5044541;28;20038;-84
2022/10/20 12:29:29;;;;;;;9.90;6.20;;;12.40;99.90;;;;;;5041886;28;20069;-84
2022/10/20 12:32:20;;;;;;;12.90;6.65;;;12.40;99.90;;;;;;5037200;28;20076;-84
2022/10/20 12:34:47;;;;;;;14.23;6.07;;;12.40;99.90;;;;;;5045871;28;20048;-83
2022/10/20 12:37:24;;;;;;;10.40;5.88;;;12.40;99.90;;;;;;5040136;28;20057;-85
2022/10/20 12:40:20;;;;;;;8.73;4.68;;;12.40;99.90;;;;;;5051073;28;20052;-84
2022/10/20 12:42:49;;;;;;;8.88;5.18;;;12.40;99.90;;;;;;5031654;28;20119;-85
2022/10/20 12:45:15;;;;;;;12.60;4.78;;;12.40;99.90;;;;;;5042312;28;20064;-83
2022/10/20 12:48:07;;;;;;;8.07;5.07;;;12.40;99.90;;;;;;5043122;28;20037;-83
2022/10/20 12:50:44;;;;;;;8.88;4.85;;;12.30;99.90;;;;;;5041842;28;20091;-83
2022/10/20 12:53:14;;;;;;;7.68;4.68;;;12.30;99.90;;;;;;5056570;28;20076;-83
2022/10/20 12:55:41;;;;;;;9.75;4.72;;;12.20;99.90;;;;;;5039845;28;20053;-84
2022/10/20 12:58:16;;;;;;;8.65;5.80;;;12.20;99.90;;;;;;5024943;28;20053;-83
2022/10/20 13:00:45;;;;;;;13.25;5.43;;;12.20;99.90;;;;;;5023846;28;20132;-83
2022/10/20 13:03:45;;;;;;;11.02;5.63;;;12.20;99.90;;;;;;5041532;28;20048;-83
2022/10/20 13:06:26;;;;;;;7.30;4.53;;;12.10;99.90;;;;;;5057620;28;20813;-83
2022/10/20 13:09:05;;;;;;;8.68;4.65;;;12.10;99.90;;;;;;5059111;28;20727;-83